Time;durP1;ratioP1;P1;durP2;ratioP2;P2;SDS_P1;SDS_P2;PMS_P1;PMS_P2;Temp;Humidity;BMP_temperature;BMP_pressure;BME280_temperature;BME280_humidity;BME280_pressure;Samples;Min_cycle;Max_cycle;Signal;HPM_P1;HPM_P2
2022/04/29 00:02:05;;;;;;;12.33;6.57;;;;;;;;;;5058195;28;20173;-66
2022/04/29 00:04:31;;;;;;;14.03;6.50;;;;;;;;;;5068870;28;20223;-66
2022/04/29 00:06:56;;;;;;;13.97;7.37;;;;;;;;;;5069128;28;20241;-67
2022/04/29 00:09:22;;;;;;;18.77;7.67;;;;;;;;;;5061987;28;20185;-67
2022/04/29 00:11:47;;;;;;;15.70;7.63;;;;;;;;;;5064476;28;20188;-67
2022/04/29 00:14:13;;;;;;;21.03;8.20;;;;;;;;;;5064199;28;20712;-67
2022/04/29 00:16:38;;;;;;;14.23;7.30;;;;;;;;;;5060932;28;20188;-67
2022/04/29 00:19:04;;;;;;;28.80;8.20;;;;;;;;;;5059517;28;20169;-67
2022/04/29 00:21:29;;;;;;;14.20;7.67;;;;;;;;;;5070048;28;20215;-67
2022/04/29 00:23:54;;;;;;;19.70;6.93;;;;;;;;;;5069009;28;20193;-66
2022/04/29 00:26:20;;;;;;;14.57;7.50;;;;;;;;;;5068513;28;20228;-66
2022/04/29 00:28:45;;;;;;;21.47;7.33;;;;;;;;;;5069508;28;20200;-66
2022/04/29 00:31:10;;;;;;;19.17;7.10;;;;;;;;;;5069668;28;20250;-66
2022/04/29 00:33:36;;;;;;;18.00;7.27;;;;;;;;;;5063253;28;20185;-66
2022/04/29 00:36:01;;;;;;;14.80;7.10;;;;;;;;;;5069598;28;20602;-66
2022/04/29 00:38:26;;;;;;;15.17;7.40;;;;;;;;;;5062335;28;20810;-66
2022/04/29 00:40:52;;;;;;;13.90;7.60;;;;;;;;;;5069258;28;20232;-66
2022/04/29 00:43:17;;;;;;;18.10;7.53;;;;;;;;;;5065961;28;20238;-66
2022/04/29 00:45:42;;;;;;;13.90;7.33;;;;;;;;;;5068670;28;20301;-66
2022/04/29 00:48:08;;;;;;;15.60;7.07;;;;;;;;;;5059873;28;20265;-67
2022/04/29 00:50:35;;;;;;;14.13;7.00;;;;;;;;;;5058910;28;20208;-67
2022/04/29 00:53:02;;;;;;;13.87;7.17;;;;;;;;;;5060707;28;20680;-67
2022/04/29 00:55:29;;;;;;;19.00;7.50;;;;;;;;;;5065873;28;20192;-66
2022/04/29 00:58:09;;;;;;;16.23;7.33;;;;;;;;;;5068651;28;20660;-66
2022/04/29 01:00:36;;;;;;;17.27;8.27;;;;;;;;;;5064477;28;20220;-65
2022/04/29 01:03:03;;;;;;;19.03;7.90;;;;;;;;;;5062040;28;20264;-66
2022/04/29 01:05:29;;;;;;;16.37;7.30;;;;;;;;;;5069741;28;20188;-66
2022/04/29 01:07:54;;;;;;;21.80;7.73;;;;;;;;;;5068478;28;20228;-66
2022/04/29 01:10:21;;;;;;;17.90;7.57;;;;;;;;;;5061168;28;20588;-66
2022/04/29 01:12:49;;;;;;;17.30;7.27;;;;;;;;;;5054802;28;20187;-66
2022/04/29 01:15:17;;;;;;;13.43;7.37;;;;;;;;;;5065375;28;20251;-67
2022/04/29 01:17:44;;;;;;;13.53;7.40;;;;;;;;;;5066441;28;20173;-67
2022/04/29 01:20:14;;;;;;;15.30;7.67;;;;;;;;;;5068059;28;20200;-67
2022/04/29 01:22:40;;;;;;;18.03;8.23;;;;;;;;;;5068787;28;20315;-67
2022/04/29 01:25:06;;;;;;;18.43;8.50;;;;;;;;;;5069137;28;20191;-67
2022/04/29 01:27:31;;;;;;;21.13;8.43;;;;;;;;;;5065274;28;20184;-67
2022/04/29 01:30:09;;;;;;;13.20;7.93;;;;;;;;;;5062897;28;20185;-67
2022/04/29 01:32:36;;;;;;;19.27;8.57;;;;;;;;;;5060209;28;20196;-66
2022/04/29 01:35:03;;;;;;;19.67;8.00;;;;;;;;;;5067473;28;20632;-67
2022/04/29 01:37:28;;;;;;;18.70;8.17;;;;;;;;;;5062538;28;20687;-67
2022/04/29 01:39:54;;;;;;;20.03;8.90;;;;;;;;;;5067458;28;20200;-67
2022/04/29 01:42:19;;;;;;;23.00;8.27;;;;;;;;;;5066473;28;20242;-69
2022/04/29 01:44:48;;;;;;;13.53;8.37;;;;;;;;;;5058817;28;20296;-67
2022/04/29 01:47:13;;;;;;;15.43;7.50;;;;;;;;;;5067369;28;20184;-67
2022/04/29 01:49:39;;;;;;;15.63;8.17;;;;;;;;;;5068035;28;20169;-68
2022/04/29 01:52:05;;;;;;;21.53;8.73;;;;;;;;;;5062474;28;20195;-67
2022/04/29 01:54:30;;;;;;;20.03;8.13;;;;;;;;;;5065678;28;20180;-67
2022/04/29 01:56:56;;;;;;;23.07;8.73;;;;;;;;;;5067746;28;20260;-67
2022/04/29 01:59:22;;;;;;;17.87;8.40;;;;;;;;;;5064826;28;20169;-67
2022/04/29 02:01:48;;;;;;;19.33;8.60;;;;;;;;;;5061070;28;20318;-67
2022/04/29 02:04:14;;;;;;;20.37;8.43;;;;;;;;;;5057244;28;20173;-66
2022/04/29 02:06:40;;;;;;;19.53;8.60;;;;;;;;;;5066979;28;20228;-66
2022/04/29 02:09:06;;;;;;;20.03;7.63;;;;;;;;;;5056443;28;20207;-66
2022/04/29 02:11:31;;;;;;;17.37;8.53;;;;;;;;;;5058011;28;20185;-66
2022/04/29 02:13:57;;;;;;;16.80;7.70;;;;;;;;;;5066772;28;20177;-66
2022/04/29 02:16:22;;;;;;;15.23;7.87;;;;;;;;;;5066479;28;20220;-67
2022/04/29 02:18:48;;;;;;;19.20;8.33;;;;;;;;;;5062124;28;20215;-67
2022/04/29 02:21:13;;;;;;;17.80;8.50;;;;;;;;;;5065120;28;20212;-66
2022/04/29 02:23:39;;;;;;;19.43;8.83;;;;;;;;;;5061102;28;20563;-66
2022/04/29 02:26:04;;;;;;;18.70;8.53;;;;;;;;;;5067337;28;20195;-67
2022/04/29 02:28:31;;;;;;;21.17;8.47;;;;;;;;;;5064762;28;20181;-66
2022/04/29 02:30:57;;;;;;;24.60;8.80;;;;;;;;;;5056186;28;20201;-66
2022/04/29 02:33:23;;;;;;;19.67;7.90;;;;;;;;;;5058767;28;20636;-67
2022/04/29 02:35:49;;;;;;;16.07;8.50;;;;;;;;;;5057787;28;20177;-67
2022/04/29 02:38:14;;;;;;;18.50;8.13;;;;;;;;;;5059703;28;20173;-67
2022/04/29 02:40:39;;;;;;;18.87;8.53;;;;;;;;;;5063432;28;20206;-66
2022/04/29 02:43:05;;;;;;;18.67;9.37;;;;;;;;;;5066206;28;20189;-66
2022/04/29 02:45:30;;;;;;;19.70;8.70;;;;;;;;;;5064704;28;20181;-67
2022/04/29 02:47:55;;;;;;;17.57;8.57;;;;;;;;;;5066709;28;20188;-67
2022/04/29 02:50:21;;;;;;;21.60;7.97;;;;;;;;;;5059942;28;20185;-67
2022/04/29 02:52:46;;;;;;;20.73;8.47;;;;;;;;;;5062344;28;20180;-67
2022/04/29 02:55:11;;;;;;;17.87;8.67;;;;;;;;;;5066990;28;20201;-67
2022/04/29 02:57:37;;;;;;;21.70;8.30;;;;;;;;;;5067802;28;20264;-67
2022/04/29 03:00:03;;;;;;;20.03;8.50;;;;;;;;;;5054234;28;20266;-68
2022/04/29 03:02:29;;;;;;;15.00;7.80;;;;;;;;;;5057362;28;20211;-67
2022/04/29 03:04:54;;;;;;;18.00;9.07;;;;;;;;;;5056664;28;20184;-66
2022/04/29 03:07:20;;;;;;;17.47;8.50;;;;;;;;;;5066805;28;20252;-67
2022/04/29 03:09:47;;;;;;;17.30;7.57;;;;;;;;;;5061591;28;20180;-66
2022/04/29 03:12:14;;;;;;;20.23;8.63;;;;;;;;;;5066691;28;20184;-67
2022/04/29 03:14:40;;;;;;;15.37;8.17;;;;;;;;;;5077329;28;20200;-66
2022/04/29 03:17:05;;;;;;;21.23;8.43;;;;;;;;;;5066827;28;20224;-67
2022/04/29 03:19:30;;;;;;;16.07;8.03;;;;;;;;;;5059927;28;20275;-66
2022/04/29 03:21:56;;;;;;;21.13;8.10;;;;;;;;;;5060121;28;20199;-67
2022/04/29 03:24:21;;;;;;;13.80;8.10;;;;;;;;;;5063129;28;20185;-67
2022/04/29 03:26:47;;;;;;;23.87;8.23;;;;;;;;;;5062077;28;20196;-67
2022/04/29 03:29:13;;;;;;;19.03;8.17;;;;;;;;;;5064777;28;20189;-67
2022/04/29 03:31:38;;;;;;;22.00;8.60;;;;;;;;;;5081465;28;20232;-66
2022/04/29 03:34:04;;;;;;;24.57;8.67;;;;;;;;;;5053230;28;20677;-66
2022/04/29 03:36:29;;;;;;;17.00;8.53;;;;;;;;;;5058295;28;20524;-66
2022/04/29 03:38:55;;;;;;;18.77;8.33;;;;;;;;;;5065104;28;20268;-67
2022/04/29 03:41:20;;;;;;;19.30;8.77;;;;;;;;;;5052087;28;20220;-67
2022/04/29 03:43:46;;;;;;;19.73;8.53;;;;;;;;;;5064128;28;20180;-67
2022/04/29 03:46:11;;;;;;;16.47;9.27;;;;;;;;;;5059652;28;20173;-67
2022/04/29 03:51:20;;;;;;;20.57;8.63;;;;;;;;;;5061396;28;20191;-67
2022/04/29 03:53:47;;;;;;;20.03;8.90;;;;;;;;;;5070236;28;20279;-67
2022/04/29 03:56:13;;;;;;;19.10;8.63;;;;;;;;;;5070369;28;20185;-67
2022/04/29 03:58:38;;;;;;;22.03;8.87;;;;;;;;;;5070642;28;20188;-66
2022/04/29 04:01:03;;;;;;;18.90;9.23;;;;;;;;;;5061313;28;20228;-67
2022/04/29 04:03:28;;;;;;;20.40;9.40;;;;;;;;;;5066850;28;20180;-67
2022/04/29 04:08:38;;;;;;;20.73;9.10;;;;;;;;;;5068702;28;20249;-66
2022/04/29 04:11:03;;;;;;;29.00;10.03;;;;;;;;;;5067147;28;20572;-66
2022/04/29 04:13:29;;;;;;;19.10;9.40;;;;;;;;;;5067181;28;20185;-66
2022/04/29 04:15:54;;;;;;;24.93;10.10;;;;;;;;;;5066702;28;20403;-66
2022/04/29 04:18:20;;;;;;;19.47;9.47;;;;;;;;;;5061569;28;20284;-66
2022/04/29 04:20:48;;;;;;;25.90;10.10;;;;;;;;;;5058156;28;20197;-67
2022/04/29 04:23:14;;;;;;;20.77;9.33;;;;;;;;;;5066678;28;20200;-66
2022/04/29 04:25:39;;;;;;;17.83;9.97;;;;;;;;;;5059417;28;20251;-66
2022/04/29 04:28:05;;;;;;;22.23;9.90;;;;;;;;;;5065615;28;20178;-67
2022/04/29 04:30:30;;;;;;;21.77;10.00;;;;;;;;;;5069080;28;20195;-68
2022/04/29 04:32:55;;;;;;;25.20;10.27;;;;;;;;;;5063102;28;20254;-67
2022/04/29 04:35:21;;;;;;;19.97;9.50;;;;;;;;;;5064853;28;20240;-66
2022/04/29 04:37:48;;;;;;;26.23;9.93;;;;;;;;;;5066940;28;20640;-66
2022/04/29 04:40:13;;;;;;;24.00;10.30;;;;;;;;;;5069491;28;20543;-66
2022/04/29 04:42:46;;;;;;;23.20;10.23;;;;;;;;;;5065580;28;20275;-66
2022/04/29 04:45:12;;;;;;;17.97;9.30;;;;;;;;;;5065656;28;20238;-66
2022/04/29 04:47:38;;;;;;;20.73;9.87;;;;;;;;;;5065402;28;20188;-67
2022/04/29 04:50:03;;;;;;;23.57;10.60;;;;;;;;;;5060134;28;20180;-66
2022/04/29 04:52:29;;;;;;;24.47;9.93;;;;;;;;;;5063508;28;20216;-66
2022/04/29 04:54:55;;;;;;;20.77;10.73;;;;;;;;;;5058668;28;20631;-66
2022/04/29 04:57:20;;;;;;;23.27;9.17;;;;;;;;;;5064403;28;20611;-67
2022/04/29 04:59:45;;;;;;;25.73;9.87;;;;;;;;;;5064998;28;20191;-67
2022/04/29 05:02:11;;;;;;;23.00;10.57;;;;;;;;;;5068992;28;20180;-67
2022/04/29 05:04:36;;;;;;;23.27;10.27;;;;;;;;;;5060612;28;20193;-67
2022/04/29 05:07:03;;;;;;;27.40;12.80;;;;;;;;;;5063959;28;20224;-66
2022/04/29 05:09:28;;;;;;;27.47;13.10;;;;;;;;;;5054382;28;20196;-67
2022/04/29 05:11:53;;;;;;;25.80;13.40;;;;;;;;;;5062505;28;20276;-67
2022/04/29 05:14:19;;;;;;;29.10;13.60;;;;;;;;;;5065507;28;20196;-67
2022/04/29 05:16:44;;;;;;;23.83;12.60;;;;;;;;;;5065643;28;20192;-67
2022/04/29 05:19:09;;;;;;;32.33;12.37;;;;;;;;;;5062649;28;20192;-68
2022/04/29 05:21:35;;;;;;;24.50;12.53;;;;;;;;;;5060854;28;20208;-67
2022/04/29 05:24:00;;;;;;;24.77;11.43;;;;;;;;;;5064721;28;20246;-67
2022/04/29 05:26:25;;;;;;;23.47;11.47;;;;;;;;;;5065011;28;20215;-67
2022/04/29 05:28:51;;;;;;;27.83;10.53;;;;;;;;;;5051604;28;20645;-67
2022/04/29 05:31:17;;;;;;;22.53;10.63;;;;;;;;;;5065046;28;20594;-67
2022/04/29 05:33:42;;;;;;;20.43;10.20;;;;;;;;;;5058542;28;20192;-67
2022/04/29 05:36:11;;;;;;;25.23;9.37;;;;;;;;;;5064668;28;20703;-67
2022/04/29 05:44:06;;;;;;;20.33;7.87;;;;;;;;;;5064186;28;20688;-67
2022/04/29 05:46:32;;;;;;;18.03;8.30;;;;;;;;;;5063145;28;20287;-67
2022/04/29 05:48:57;;;;;;;21.77;8.67;;;;;;;;;;5055201;28;20643;-67
2022/04/29 05:51:22;;;;;;;24.80;8.70;;;;;;;;;;5063874;28;20195;-67
2022/04/29 05:53:47;;;;;;;16.50;8.53;;;;;;;;;;5062076;28;20177;-67
2022/04/29 05:56:13;;;;;;;16.70;8.53;;;;;;;;;;5063845;28;20203;-67
2022/04/29 05:58:38;;;;;;;23.53;8.13;;;;;;;;;;5064907;28;20213;-67
2022/04/29 06:01:05;;;;;;;17.03;8.13;;;;;;;;;;5063758;28;20204;-67
2022/04/29 06:03:30;;;;;;;19.93;8.97;;;;;;;;;;5062194;28;20187;-67
2022/04/29 06:05:55;;;;;;;20.13;8.77;;;;;;;;;;5057417;28;20189;-67
2022/04/29 06:08:21;;;;;;;17.00;8.70;;;;;;;;;;5066719;28;20190;-67
2022/04/29 06:10:46;;;;;;;18.23;8.77;;;;;;;;;;5058891;28;20187;-65
2022/04/29 06:13:12;;;;;;;17.63;8.80;;;;;;;;;;5065201;28;20216;-67
2022/04/29 06:15:37;;;;;;;18.10;8.63;;;;;;;;;;5058695;28;20655;-67
2022/04/29 06:18:03;;;;;;;22.57;8.30;;;;;;;;;;5066371;28;20184;-67
2022/04/29 06:20:31;;;;;;;20.37;9.17;;;;;;;;;;5064398;28;20205;-68
2022/04/29 06:22:57;;;;;;;21.13;8.63;;;;;;;;;;5067061;28;20644;-67
2022/04/29 06:25:24;;;;;;;17.23;8.13;;;;;;;;;;5064476;28;20311;-67
2022/04/29 06:27:49;;;;;;;18.30;8.40;;;;;;;;;;5065901;28;20180;-67
2022/04/29 06:30:15;;;;;;;24.37;8.37;;;;;;;;;;5066712;28;20183;-68
2022/04/29 06:32:40;;;;;;;15.47;7.77;;;;;;;;;;5066188;28;20200;-67
2022/04/29 06:35:06;;;;;;;18.65;7.90;;;;;;;;;;5064505;28;20188;-68
2022/04/29 06:37:33;;;;;;;20.75;7.60;;;;;;;;;;5066116;28;20208;-67
2022/04/29 06:39:58;;;;;;;16.47;7.57;;;;;;;;;;5065180;28;20292;-67
2022/04/29 06:42:24;;;;;;;16.42;7.30;;;;;;;;;;5062882;28;20299;-67
2022/04/29 06:44:49;;;;;;;16.48;7.70;;;;;;;;;;5065518;28;20185;-67
2022/04/29 06:47:14;;;;;;;17.50;8.13;;;;;;;;;;5061240;28;20272;-67
2022/04/29 06:49:40;;;;;;;20.40;8.50;;;;;;;;;;5063793;28;20648;-67
2022/04/29 06:52:05;;;;;;;17.30;7.87;;;;;;;;;;5064578;28;20219;-66
2022/04/29 06:54:30;;;;;;;16.70;7.13;;;;;;;;;;5064759;28;20185;-67
2022/04/29 06:56:56;;;;;;;13.53;6.93;;;;;;;;;;5066939;28;20188;-68
2022/04/29 06:59:22;;;;;;;17.52;7.82;;;;;;;;;;5066634;28;20280;-66
2022/04/29 07:01:47;;;;;;;16.08;7.80;;;;;;;;;;5066347;28;20247;-67
2022/04/29 07:04:12;;;;;;;16.90;7.88;;;;;;;;;;5066420;28;20204;-67
2022/04/29 07:06:38;;;;;;;14.20;7.70;;;;;;;;;;5065750;28;20584;-67
2022/04/29 07:09:04;;;;;;;12.45;6.65;;;;;;;;;;5065387;28;20246;-67
2022/04/29 07:11:31;;;;;;;17.02;7.57;;;;;;;;;;5064706;28;20637;-67
2022/04/29 07:13:57;;;;;;;18.63;7.50;;;;;;;;;;5062135;28;20188;-67
2022/04/29 07:16:22;;;;;;;21.10;7.47;;;;;;;;;;5065063;28;20568;-68
2022/04/29 07:18:48;;;;;;;19.07;7.93;;;;;;;;;;5065214;28;20184;-67
2022/04/29 07:21:13;;;;;;;18.20;7.32;;;;;;;;;;5063850;28;20197;-68
2022/04/29 07:23:38;;;;;;;14.30;7.70;;;;;;;;;;5064618;28;20195;-68
2022/04/29 07:26:04;;;;;;;20.17;8.48;;;;;;;;;;5080062;28;20276;-68
2022/04/29 07:28:29;;;;;;;17.00;7.67;;;;;;;;;;5069157;28;20263;-68
2022/04/29 07:30:56;;;;;;;20.80;8.67;;;;;;;;;;5068012;28;20197;-68
2022/04/29 07:33:25;;;;;;;14.32;9.05;;;;;;;;;;5069787;28;20230;-68
2022/04/29 07:44:02;;;;;;;17.55;8.23;;;;;;;;;;5069110;28;20277;-68
2022/04/29 07:46:28;;;;;;;15.98;7.85;;;;;;;;;;5067415;28;20258;-68
2022/04/29 07:48:53;;;;;;;17.60;7.93;;;;;;;;;;5067665;28;20195;-68
2022/04/29 07:51:19;;;;;;;16.70;8.10;;;;;;;;;;5070286;28;20173;-68
2022/04/29 07:53:44;;;;;;;17.33;8.00;;;;;;;;;;5070511;28;20264;-67
2022/04/29 07:56:09;;;;;;;13.27;7.75;;;;;;;;;;5066788;28;20218;-67
2022/04/29 07:58:35;;;;;;;18.35;8.07;;;;;;;;;;5069276;28;20195;-67
2022/04/29 08:01:01;;;;;;;17.88;8.20;;;;;;;;;;5065841;28;20201;-68
2022/04/29 08:03:27;;;;;;;17.52;7.55;;;;;;;;;;5066699;28;20195;-68
2022/04/29 08:05:53;;;;;;;14.70;7.50;;;;;;;;;;5066033;28;20187;-68
2022/04/29 08:08:19;;;;;;;15.30;7.55;;;;;;;;;;5068621;28;20594;-68
2022/04/29 08:10:45;;;;;;;15.85;7.82;;;;;;;;;;5067930;28;20604;-68
2022/04/29 08:13:11;;;;;;;13.82;7.15;;;;;;;;;;5065039;28;20185;-68
2022/04/29 08:15:37;;;;;;;15.93;7.80;;;;;;;;;;5062949;28;20191;-67
2022/04/29 08:18:04;;;;;;;13.55;7.45;;;;;;;;;;5065588;28;20230;-68
2022/04/29 08:20:30;;;;;;;13.18;7.55;;;;;;;;;;5069458;28;20254;-67
2022/04/29 08:22:55;;;;;;;13.55;7.30;;;;;;;;;;5067034;28;20212;-68
2022/04/29 08:25:21;;;;;;;15.00;8.05;;;;;;;;;;5068493;28;20192;-67
2022/04/29 08:27:47;;;;;;;15.13;7.65;;;;;;;;;;5067844;28;20191;-68
2022/04/29 08:30:13;;;;;;;16.00;7.93;;;;;;;;;;5066510;28;20288;-68
2022/04/29 08:32:41;;;;;;;14.95;7.65;;;;;;;;;;5065578;28;20339;-68
2022/04/29 08:35:07;;;;;;;9.73;6.32;;;;;;;;;;5066404;28;20192;-70
2022/04/29 08:37:32;;;;;;;13.60;6.97;;;;;;;;;;5067328;28;20176;-69
2022/04/29 08:39:59;;;;;;;13.10;6.38;;;;;;;;;;5068081;28;20224;-69
2022/04/29 08:42:26;;;;;;;12.93;6.72;;;;;;;;;;5066775;28;20177;-68
2022/04/29 08:44:53;;;;;;;16.77;7.45;;;;;;;;;;5065715;28;20253;-68
2022/04/29 08:47:19;;;;;;;10.60;6.82;;;;;;;;;;5063947;28;20191;-68
2022/04/29 08:49:45;;;;;;;13.18;7.03;;;;;;;;;;5068120;28;20177;-68
2022/04/29 08:52:11;;;;;;;14.43;7.28;;;;;;;;;;5069301;28;20181;-68
2022/04/29 09:00:06;;;;;;;12.32;5.93;;;;;;;;;;5067615;28;20251;-68
2022/04/29 09:02:39;;;;;;;10.38;5.85;;;;;;;;;;5066677;28;20185;-68
2022/04/29 09:05:09;;;;;;;11.77;5.97;;;;;;;;;;5065198;28;20264;-68
2022/04/29 09:07:54;;;;;;;9.32;6.00;;;;;;;;;;5060382;28;20349;-68
2022/04/29 09:10:24;;;;;;;11.88;5.93;;;;;;;;;;5067583;28;20188;-68
2022/04/29 09:12:50;;;;;;;13.20;5.80;;;;;;;;;;5063643;28;20509;-68
2022/04/29 09:15:16;;;;;;;10.35;5.45;;;;;;;;;;5067351;28;20258;-70
2022/04/29 09:17:46;;;;;;;11.18;5.05;;;;;;;;;;5067059;28;20233;-68
2022/04/29 09:20:18;;;;;;;11.18;5.55;;;;;;;;;;5067294;28;20207;-68
2022/04/29 09:22:49;;;;;;;15.10;5.55;;;;;;;;;;5065480;28;20181;-67
2022/04/29 09:25:15;;;;;;;14.02;5.60;;;;;;;;;;5067651;28;20180;-67
2022/04/29 09:28:01;;;;;;;10.57;5.22;;;;;;;;;;5065988;28;20695;-68
2022/04/29 09:30:33;;;;;;;9.15;5.05;;;;;;;;;;5067653;28;20350;-68
2022/04/29 09:32:58;;;;;;;14.23;5.10;;;;;;;;;;5064275;28;20180;-68
2022/04/29 09:35:41;;;;;;;10.60;5.63;;;;;;;;;;5068377;28;20184;-68
2022/04/29 09:40:53;;;;;;;13.52;5.22;;;;;;;;;;5067058;28;20573;-68
2022/04/29 09:43:39;;;;;;;10.15;4.72;;;;;;;;;;5068845;28;20185;-68
2022/04/29 09:46:18;;;;;;;10.25;5.38;;;;;;;;;;5064701;28;20177;-68
2022/04/29 09:49:08;;;;;;;11.32;4.95;;;;;;;;;;5064655;28;20176;-70
2022/04/29 09:51:47;;;;;;;10.40;5.22;;;;;;;;;;5065125;28;20176;-69
2022/04/29 09:54:22;;;;;;;8.75;4.60;;;;;;;;;;5066734;28;20200;-69
2022/04/29 09:57:08;;;;;;;10.68;4.72;;;;;;;;;;5066546;28;20180;-68
2022/04/29 09:59:34;;;;;;;10.85;4.57;;;;;;;;;;5065669;28;20666;-69
2022/04/29 10:02:01;;;;;;;15.30;4.85;;;;;;;;;;5064864;28;20235;-69
2022/04/29 10:04:30;;;;;;;9.63;4.47;;;;;;;;;;5065833;28;20195;-68
2022/04/29 10:06:56;;;;;;;7.00;4.25;;;;;;;;;;5063346;28;20481;-68
2022/04/29 10:09:24;;;;;;;11.98;4.55;;;;;;;;;;5064628;28;20255;-67
2022/04/29 10:11:51;;;;;;;7.70;4.07;;;;;;;;;;5065845;28;20546;-68
2022/04/29 10:14:17;;;;;;;8.13;4.18;;;;;;;;;;5064928;28;20189;-68
2022/04/29 10:21:15;;;;;;;8.68;4.35;;;;;;;;;;5065272;28;20204;-69
2022/04/29 10:22:18;;;;;;;8.63;4.13;;;;;;;;;;5053639;28;20333;-68
2022/04/29 10:24:43;;;;;;;8.95;3.80;;;;;;;;;;5067056;28;20208;-68
2022/04/29 10:27:08;;;;;;;8.02;4.10;;;;;;;;;;5059366;28;20683;-68
2022/04/29 10:29:34;;;;;;;10.00;4.32;;;;;;;;;;5066186;28;20554;-68
2022/04/29 10:32:04;;;;;;;8.18;3.72;;;;;;;;;;5059532;28;20246;-68
2022/04/29 10:34:31;;;;;;;6.97;4.03;;;;;;;;;;5063357;28;20276;-69
2022/04/29 10:36:58;;;;;;;7.47;4.38;;;;;;;;;;5050212;28;20181;-68
2022/04/29 10:39:23;;;;;;;7.95;3.80;;;;;;;;;;5064360;28;20775;-69
2022/04/29 10:42:00;;;;;;;8.18;4.15;;;;;;;;;;5064838;28;20201;-67
2022/04/29 10:44:25;;;;;;;8.23;4.18;;;;;;;;;;5067574;28;20184;-68
2022/04/29 10:46:51;;;;;;;12.18;4.30;;;;;;;;;;5063960;28;20249;-68
2022/04/29 10:49:22;;;;;;;14.30;5.32;;;;;;;;;;5062536;28;20245;-69
2022/04/29 10:51:50;;;;;;;11.80;4.20;;;;;;;;;;5064365;28;20181;-68
2022/04/29 10:54:35;;;;;;;8.80;3.97;;;;;;;;;;5061232;28;20180;-68
2022/04/29 10:57:04;;;;;;;9.43;4.35;;;;;;;;;;5054676;28;20288;-68
2022/04/29 10:59:48;;;;;;;9.40;4.60;;;;;;;;;;5061518;28;20663;-68
2022/04/29 11:02:26;;;;;;;8.32;4.43;;;;;;;;;;5066411;28;20180;-67
2022/04/29 11:04:51;;;;;;;8.00;4.22;;;;;;;;;;5070440;28;20177;-67
2022/04/29 11:07:36;;;;;;;8.75;4.25;;;;;;;;;;5066825;28;20683;-67
2022/04/29 11:10:04;;;;;;;10.90;4.65;;;;;;;;;;5065185;28;20294;-68
2022/04/29 11:12:34;;;;;;;9.55;4.53;;;;;;;;;;5068075;28;20177;-68
2022/04/29 11:15:12;;;;;;;9.85;4.32;;;;;;;;;;5068092;28;20207;-67
2022/04/29 11:17:38;;;;;;;9.10;4.30;;;;;;;;;;5068041;28;20185;-68
2022/04/29 11:20:23;;;;;;;10.70;4.25;;;;;;;;;;5070945;28;20193;-69
2022/04/29 11:25:52;;;;;;;6.57;4.00;;;;;;;;;;5068600;28;20237;-69
2022/04/29 11:28:18;;;;;;;7.68;3.78;;;;;;;;;;5068474;28;20212;-69
2022/04/29 11:30:45;;;;;;;8.85;3.25;;;;;;;;;;5069790;28;20279;-68
2022/04/29 11:33:10;;;;;;;9.98;3.78;;;;;;;;;;5065121;28;20191;-68
2022/04/29 11:35:35;;;;;;;5.78;3.60;;;;;;;;;;5068088;28;20193;-72
2022/04/29 11:38:01;;;;;;;13.20;3.92;;;;;;;;;;5064919;28;20177;-67
2022/04/29 11:40:27;;;;;;;7.80;3.65;;;;;;;;;;5069264;28;20201;-66
2022/04/29 11:42:52;;;;;;;9.60;4.00;;;;;;;;;;5068732;28;20184;-69
2022/04/29 11:45:22;;;;;;;6.68;3.80;;;;;;;;;;5069040;28;20520;-68
2022/04/29 11:47:48;;;;;;;4.28;3.70;;;;;;;;;;5064886;28;20185;-69
2022/04/29 11:50:13;;;;;;;7.00;3.95;;;;;;;;;;5068905;28;20173;-69
2022/04/29 11:52:39;;;;;;;10.75;3.90;;;;;;;;;;5067126;28;20282;-68
2022/04/29 11:55:13;;;;;;;7.35;3.78;;;;;;;;;;5068558;28;20176;-68
2022/04/29 11:57:46;;;;;;;8.50;3.88;;;;;;;;;;5063710;28;20534;-70
2022/04/29 12:00:30;;;;;;;7.10;3.75;;;;;;;;;;5069216;28;20263;-69
2022/04/29 12:02:57;;;;;;;8.02;3.75;;;;;;;;;;5067951;28;20724;-69
2022/04/29 12:05:24;;;;;;;9.35;4.40;;;;;;;;;;5068287;28;20207;-68
2022/04/29 12:07:50;;;;;;;7.18;3.85;;;;;;;;;;5068966;28;20221;-69
2022/04/29 12:10:20;;;;;;;11.52;4.35;;;;;;;;;;5067325;28;20183;-67
2022/04/29 12:12:48;;;;;;;5.30;4.07;;;;;;;;;;5067537;28;20621;-68
2022/04/29 12:15:18;;;;;;;8.70;4.55;;;;;;;;;;5066910;28;20189;-68
2022/04/29 12:17:43;;;;;;;10.13;5.68;;;;;;;;;;5067132;28;20623;-70
2022/04/29 12:20:17;;;;;;;11.27;4.65;;;;;;;;;;5067743;28;20193;-69
2022/04/29 12:22:44;;;;;;;8.20;4.82;;;;;;;;;;5068428;28;20188;-68
2022/04/29 12:25:24;;;;;;;8.27;4.93;;;;;;;;;;5069150;28;20294;-68
2022/04/29 12:28:21;;;;;;;10.73;5.18;;;;;;;;;;5066332;28;20726;-69
2022/04/29 12:36:53;;;;;;;8.95;4.80;;;;;;;;;;5068313;28;20637;-68
2022/04/29 12:39:22;;;;;;;10.30;4.75;;;;;;;;;;5067737;28;20242;-68
2022/04/29 12:42:18;;;;;;;10.43;5.40;;;;;;;;;;5069462;28;20667;-68
2022/04/29 12:45:10;;;;;;;7.80;5.35;;;;;;;;;;5059636;28;20211;-69
2022/04/29 12:47:41;;;;;;;10.40;5.10;;;;;;;;;;5082751;28;20180;-68
2022/04/29 12:50:15;;;;;;;8.82;5.30;;;;;;;;;;5070496;28;20181;-68
2022/04/29 12:53:06;;;;;;;10.15;4.57;;;;;;;;;;5067095;28;20188;-68
2022/04/29 12:55:44;;;;;;;7.78;4.72;;;;;;;;;;5066803;28;20185;-68
2022/04/29 12:58:31;;;;;;;8.90;4.45;;;;;;;;;;5066373;28;20201;-68
2022/04/29 13:00:56;;;;;;;8.10;4.55;;;;;;;;;;5082605;28;20578;-68
2022/04/29 13:03:30;;;;;;;8.45;4.68;;;;;;;;;;5064665;28;20185;-68
2022/04/29 13:05:58;;;;;;;9.95;5.00;;;;;;;;;;5066225;28;20337;-69
2022/04/29 13:08:24;;;;;;;8.32;4.85;;;;;;;;;;5065426;28;20676;-68
2022/04/29 13:10:50;;;;;;;7.25;4.63;;;;;;;;;;5065140;28;20179;-68
2022/04/29 13:13:17;;;;;;;7.07;3.92;;;;;;;;;;5065993;28;20184;-69
2022/04/29 13:15:43;;;;;;;7.80;4.05;;;;;;;;;;5066713;28;20181;-68
2022/04/29 13:18:11;;;;;;;6.35;3.90;;;;;;;;;;5066943;28;20577;-67
2022/04/29 13:20:36;;;;;;;8.40;4.18;;;;;;;;;;5066410;28;20284;-67
2022/04/29 13:23:02;;;;;;;6.40;4.03;;;;;;;;;;5065421;28;20659;-68
2022/04/29 13:25:27;;;;;;;6.70;3.78;;;;;;;;;;5066106;28;20718;-68
2022/04/29 13:27:53;;;;;;;9.25;4.03;;;;;;;;;;5063137;28;20185;-69
2022/04/29 13:30:18;;;;;;;8.63;4.05;;;;;;;;;;5081872;28;20176;-68
2022/04/29 13:32:44;;;;;;;9.10;4.72;;;;;;;;;;5064899;28;20311;-67
2022/04/29 13:35:09;;;;;;;7.38;4.13;;;;;;;;;;5066229;28;20172;-68
2022/04/29 13:37:36;;;;;;;6.18;3.60;;;;;;;;;;5063405;28;20205;-68
2022/04/29 13:40:02;;;;;;;9.80;3.85;;;;;;;;;;5064684;28;20625;-69
2022/04/29 13:42:29;;;;;;;10.52;4.78;;;;;;;;;;5062019;28;20181;-69
2022/04/29 13:45:07;;;;;;;7.03;4.05;;;;;;;;;;5065089;28;20199;-68
2022/04/29 13:47:36;;;;;;;7.03;3.80;;;;;;;;;;5064686;28;20176;-68
2022/04/29 13:50:02;;;;;;;8.25;3.45;;;;;;;;;;5067003;28;20230;-67
2022/04/29 13:55:12;;;;;;;7.95;3.70;;;;;;;;;;5065557;28;20219;-69
2022/04/29 13:57:39;;;;;;;7.68;4.00;;;;;;;;;;5065182;28;20239;-68
2022/04/29 14:00:05;;;;;;;9.32;4.18;;;;;;;;;;5067798;28;20267;-70
2022/04/29 14:02:32;;;;;;;6.05;3.80;;;;;;;;;;5067837;28;20283;-71
2022/04/29 14:04:58;;;;;;;5.15;3.83;;;;;;;;;;5065603;28;20180;-69
2022/04/29 14:07:23;;;;;;;6.97;4.07;;;;;;;;;;5066867;28;20228;-68
2022/04/29 14:09:49;;;;;;;7.68;3.70;;;;;;;;;;5065602;28;20575;-68
2022/04/29 14:12:16;;;;;;;10.52;3.85;;;;;;;;;;5064176;28;20212;-69
2022/04/29 14:14:43;;;;;;;5.80;4.00;;;;;;;;;;5060126;28;20628;-69
2022/04/29 14:17:09;;;;;;;6.72;3.75;;;;;;;;;;5061085;28;20679;-69
2022/04/29 14:19:34;;;;;;;6.15;3.72;;;;;;;;;;5063767;28;20181;-69
2022/04/29 14:22:01;;;;;;;7.40;3.90;;;;;;;;;;5059275;28;20193;-68
2022/04/29 14:24:33;;;;;;;10.60;3.92;;;;;;;;;;5066002;28;20208;-68
2022/04/29 14:26:59;;;;;;;11.38;3.92;;;;;;;;;;5065784;28;20200;-69
2022/04/29 14:29:24;;;;;;;6.97;4.18;;;;;;;;;;5065549;28;20196;-71
2022/04/29 14:31:50;;;;;;;6.88;3.72;;;;;;;;;;5066576;28;20207;-68
2022/04/29 14:34:16;;;;;;;7.07;3.55;;;;;;;;;;5082830;28;20201;-68
2022/04/29 14:36:42;;;;;;;5.63;3.80;;;;;;;;;;5067729;28;20279;-68
2022/04/29 14:39:07;;;;;;;7.00;3.58;;;;;;;;;;5066223;28;20698;-69
2022/04/29 14:41:32;;;;;;;9.05;5.30;;;;;;;;;;5060400;28;20291;-68
2022/04/29 14:43:58;;;;;;;6.57;4.05;;;;;;;;;;5058782;28;20246;-69
2022/04/29 14:46:26;;;;;;;7.55;3.95;;;;;;;;;;5064757;28;20374;-69
2022/04/29 14:48:52;;;;;;;5.70;3.97;;;;;;;;;;5059886;28;20273;-77
2022/04/29 14:51:17;;;;;;;6.40;3.83;;;;;;;;;;5063491;28;20263;-67
2022/04/29 14:53:43;;;;;;;5.88;3.95;;;;;;;;;;5066235;28;20181;-67
2022/04/29 14:56:08;;;;;;;6.15;3.92;;;;;;;;;;5066673;28;20196;-67
2022/04/29 14:58:34;;;;;;;9.23;4.38;;;;;;;;;;5062924;28;20185;-68
2022/04/29 15:00:59;;;;;;;8.00;4.38;;;;;;;;;;5060141;28;20555;-68
2022/04/29 15:03:25;;;;;;;6.32;4.65;;;;;;;;;;5062096;28;20192;-68
2022/04/29 15:05:50;;;;;;;7.60;3.97;;;;;;;;;;5060995;28;20180;-71
2022/04/29 15:08:16;;;;;;;6.72;3.90;;;;;;;;;;5063520;28;20717;-68
2022/04/29 15:16:11;;;;;;;6.80;3.80;;;;;;;;;;5066311;28;20263;-68
2022/04/29 15:18:38;;;;;;;10.25;4.18;;;;;;;;;;5066597;28;20189;-67
2022/04/29 15:21:04;;;;;;;5.18;4.00;;;;;;;;;;5066637;28;20668;-68
2022/04/29 15:23:29;;;;;;;7.40;3.85;;;;;;;;;;5066479;28;20187;-67